Time;durP1;ratioP1;P1;durP2;ratioP2;P2;SDS_P1;SDS_P2;PMS_P1;PMS_P2;Temp;Humidity;BMP_temperature;BMP_pressure;BME280_temperature;BME280_humidity;BME280_pressure;Samples;Min_cycle;Max_cycle;Signal;HPM_P1;HPM_P2
2022/02/11 00:00:38;;;;;;;7.35;4.40;;;6.30;99.90;;;;;;2593655;39;20382;31
2022/02/11 00:08:28;;;;;;;10.00;5.95;;;6.30;99.90;;;;;;2586038;54;20972;31
2022/02/11 00:11:04;;;;;;;10.05;5.63;;;6.30;99.90;;;;;;2586446;54;20026;31
2022/02/11 00:13:36;;;;;;;8.60;4.67;;;6.30;99.90;;;;;;2586430;54;20164;31
2022/02/11 00:16:13;;;;;;;7.63;4.47;;;6.40;99.90;;;;;;2684108;39;20523;31
2022/02/11 00:18:50;;;;;;;7.50;4.80;;;6.40;99.90;;;;;;2590635;54;20026;31
2022/02/11 00:21:25;;;;;;;6.97;4.32;;;6.30;99.90;;;;;;2586170;54;20182;31
2022/02/11 00:23:57;;;;;;;9.20;5.50;;;6.30;99.90;;;;;;2586419;54;20851;31
2022/02/11 00:26:34;;;;;;;7.55;4.50;;;6.30;99.90;;;;;;2586289;54;20025;31
2022/02/11 00:34:47;;;;;;;6.83;4.70;;;6.20;99.90;;;;;;2586729;46;20488;31
2022/02/11 00:37:22;;;;;;;8.48;4.85;;;6.30;99.90;;;;;;2586054;54;20264;31
2022/02/11 01:02:50;;;;;;;5.40;4.10;;;6.20;99.90;;;;;;2684093;39;21346;31
2022/02/11 01:05:22;;;;;;;7.65;3.97;;;6.30;99.90;;;;;;2605031;46;20085;31
2022/02/11 01:07:56;;;;;;;5.45;4.10;;;6.30;99.90;;;;;;2585971;54;20068;31
2022/02/11 01:10:31;;;;;;;6.65;4.85;;;6.30;99.90;;;;;;2586216;54;20761;31
2022/02/11 01:13:05;;;;;;;6.75;5.55;;;6.20;99.90;;;;;;2586368;54;20820;31
2022/02/11 01:15:41;;;;;;;7.65;6.10;;;6.20;99.90;;;;;;2587139;46;21429;31
2022/02/11 01:18:14;;;;;;;8.45;5.80;;;6.20;99.90;;;;;;2586168;54;20045;31
2022/02/11 01:20:52;;;;;;;9.40;5.80;;;6.30;99.90;;;;;;2604806;46;20145;31
2022/02/11 01:23:44;;;;;;;8.60;5.85;;;6.20;99.90;;;;;;2586120;54;20085;31
2022/02/11 01:26:29;;;;;;;8.50;6.40;;;6.20;99.90;;;;;;2590262;54;20053;31
2022/02/11 01:29:38;;;;;;;8.70;7.00;;;6.20;99.90;;;;;;2586064;54;20733;31
2022/02/11 01:32:25;;;;;;;6.95;4.90;;;6.20;99.90;;;;;;2586032;54;20297;31
2022/02/11 01:35:08;;;;;;;9.48;6.95;;;6.20;99.90;;;;;;2586363;54;20031;31
2022/02/11 01:37:52;;;;;;;10.47;6.70;;;6.30;99.90;;;;;;2587439;54;20846;31
2022/02/11 01:49:09;;;;;;;;;;;6.30;99.90;;;;;;2586200;54;19985;31
2022/02/11 01:51:49;;;;;;;11.73;7.18;;;6.30;99.90;;;;;;2609056;47;19985;31
2022/02/11 01:54:37;;;;;;;8.65;7.25;;;6.20;99.90;;;;;;2585890;54;20022;31
2022/02/11 01:57:33;;;;;;;10.30;7.83;;;6.20;99.90;;;;;;2586185;54;20115;31
2022/02/11 02:00:28;;;;;;;11.82;9.02;;;6.30;99.90;;;;;;2604810;47;20034;31
2022/02/11 02:06:16;;;;;;;14.07;10.50;;;6.20;99.90;;;;;;2590731;54;20914;31
2022/02/11 02:12:00;;;;;;;13.70;10.17;;;6.10;99.90;;;;;;2587240;54;20039;31
2022/02/11 02:23:23;;;;;;;13.25;9.80;;;6.10;99.90;;;;;;2588601;54;21794;31
2022/02/11 02:26:08;;;;;;;13.88;10.55;;;6.10;99.90;;;;;;2587370;54;20034;31
2022/02/11 02:37:44;;;;;;;12.10;8.63;;;6.10;99.90;;;;;;2605195;46;20046;31
2022/02/11 02:56:54;;;;;;;11.80;8.57;;;6.10;99.90;;;;;;2606123;54;20046;31
2022/02/11 02:59:54;;;;;;;15.55;9.50;;;6.10;99.90;;;;;;2586611;54;20118;31
2022/02/11 04:56:48;;;;;;;19.58;12.32;;;5.80;99.90;;;;;;2586151;54;20846;31
2022/02/11 05:02:07;;;;;;;23.00;13.85;;;5.80;99.90;;;;;;2586260;54;20023;31
2022/02/11 05:04:40;;;;;;;25.40;13.73;;;5.70;99.90;;;;;;2604830;46;20759;31
2022/02/11 05:07:11;;;;;;;21.30;14.77;;;5.70;99.90;;;;;;2586501;54;20026;31
2022/02/11 05:09:46;;;;;;;30.70;18.60;;;5.70;99.90;;;;;;2604647;46;20740;31
2022/02/11 05:12:20;;;;;;;28.45;17.92;;;5.70;99.90;;;;;;2586002;54;20023;31
2022/02/11 05:14:54;;;;;;;25.60;17.48;;;5.60;99.90;;;;;;2586321;54;20848;31
2022/02/11 05:17:26;;;;;;;25.15;16.35;;;5.70;99.90;;;;;;2586125;54;20103;31
2022/02/11 05:19:58;;;;;;;23.95;14.00;;;5.70;99.90;;;;;;2586296;54;20085;31
2022/02/11 05:22:30;;;;;;;19.00;13.25;;;5.70;99.90;;;;;;2586032;54;20886;31
2022/02/11 05:25:03;;;;;;;20.65;12.70;;;5.70;99.90;;;;;;2585846;54;20026;31
2022/02/11 05:27:37;;;;;;;19.90;12.30;;;5.60;99.90;;;;;;2585974;54;20782;31
2022/02/11 05:30:11;;;;;;;;;;;5.60;99.90;;;;;;2586347;54;20705;31
2022/02/11 05:32:46;;;;;;;14.80;9.85;;;5.60;99.90;;;;;;2586249;54;20849;31
2022/02/11 05:35:19;;;;;;;14.50;8.95;;;5.60;99.90;;;;;;2586631;46;20146;31
2022/02/11 05:37:52;;;;;;;15.65;9.38;;;5.50;99.90;;;;;;2586042;54;20755;31
2022/02/11 05:40:27;;;;;;;14.68;9.85;;;5.60;99.90;;;;;;2586174;54;20873;31
2022/02/11 05:43:01;;;;;;;15.23;9.13;;;5.60;99.90;;;;;;2586211;46;20915;31
2022/02/11 05:45:34;;;;;;;17.85;9.60;;;5.60;99.90;;;;;;2586113;54;20766;31
2022/02/11 05:48:09;;;;;;;14.13;9.23;;;5.50;99.90;;;;;;2586737;47;20895;31
2022/02/11 05:50:41;;;;;;;16.05;9.45;;;5.50;99.90;;;;;;2586090;54;20022;31
2022/02/11 05:53:15;;;;;;;18.67;10.02;;;5.60;99.90;;;;;;2586070;54;21062;31
2022/02/11 05:55:46;;;;;;;17.10;10.50;;;5.50;99.90;;;;;;2585861;54;20088;31
2022/02/11 05:58:24;;;;;;;16.70;10.15;;;5.50;99.90;;;;;;2585633;54;20050;31
2022/02/11 06:00:56;;;;;;;14.98;10.25;;;5.50;99.90;;;;;;2585844;54;20088;31
2022/02/11 06:03:31;;;;;;;18.85;10.70;;;5.40;99.90;;;;;;2585712;54;20929;31
2022/02/11 06:06:02;;;;;;;12.02;8.20;;;5.40;99.90;;;;;;2585765;54;20924;31
2022/02/11 06:08:39;;;;;;;15.70;8.50;;;5.40;99.90;;;;;;2586267;54;20019;31
2022/02/11 06:11:12;;;;;;;16.20;8.80;;;5.40;99.90;;;;;;2585939;54;20840;31
2022/02/11 06:13:47;;;;;;;14.50;8.27;;;5.40;99.90;;;;;;2585977;54;20760;31
2022/02/11 06:16:21;;;;;;;10.05;6.20;;;5.40;99.90;;;;;;2585776;54;20033;31
2022/02/11 06:18:55;;;;;;;11.48;7.55;;;5.40;99.90;;;;;;2585907;54;20920;31
2022/02/11 06:21:29;;;;;;;16.43;7.67;;;5.30;99.90;;;;;;2586047;54;20054;31
2022/02/11 06:24:00;;;;;;;10.05;5.85;;;5.20;99.90;;;;;;2585626;54;20835;31
2022/02/11 06:26:35;;;;;;;11.25;6.30;;;5.20;99.90;;;;;;2585862;54;20072;31
2022/02/11 06:29:11;;;;;;;9.43;6.00;;;5.20;99.90;;;;;;2585588;54;20027;31
2022/02/11 06:31:43;;;;;;;;;;;5.20;99.90;;;;;;2586275;54;20045;31
2022/02/11 06:34:16;;;;;;;12.70;6.20;;;5.20;99.90;;;;;;2585891;54;19934;31
2022/02/11 06:36:49;;;;;;;10.80;5.50;;;5.20;99.90;;;;;;2603945;47;20428;31
2022/02/11 06:39:25;;;;;;;10.75;5.95;;;5.20;99.90;;;;;;2585907;54;20919;31
2022/02/11 06:41:59;;;;;;;8.18;4.68;;;5.10;99.90;;;;;;2585775;54;20900;31
2022/02/11 06:44:34;;;;;;;8.50;5.30;;;5.10;99.90;;;;;;2604202;47;20887;31
2022/02/11 06:47:09;;;;;;;8.90;6.10;;;5.10;99.90;;;;;;2604865;47;20026;31
2022/02/11 06:49:41;;;;;;;8.90;5.20;;;5.10;99.90;;;;;;2586936;54;20045;31
2022/02/11 06:52:13;;;;;;;12.15;6.28;;;5.10;99.90;;;;;;2586526;54;20030;31
2022/02/11 06:54:45;;;;;;;10.50;5.75;;;5.00;99.90;;;;;;2587474;46;20844;31
2022/02/11 06:57:20;;;;;;;11.80;6.70;;;5.00;99.90;;;;;;2586523;54;20022;31
2022/02/11 06:59:56;;;;;;;6.30;3.10;;;5.00;99.90;;;;;;2586814;54;20772;31
2022/02/11 07:02:30;;;;;;;9.80;3.70;;;5.00;99.90;;;;;;2586374;54;20376;31
2022/02/11 07:05:02;;;;;;;5.87;3.10;;;4.90;99.90;;;;;;2587847;54;20065;31
2022/02/11 07:07:34;;;;;;;5.30;3.00;;;4.90;99.90;;;;;;2586441;54;20105;31
2022/02/11 07:10:06;;;;;;;6.32;3.50;;;4.90;99.90;;;;;;2586454;54;20933;31
2022/02/11 07:12:41;;;;;;;10.52;5.47;;;4.80;99.90;;;;;;2586390;54;20030;31
2022/02/11 07:15:16;;;;;;;8.60;5.50;;;4.80;99.90;;;;;;2587262;46;20896;31
2022/02/11 07:17:49;;;;;;;8.63;3.63;;;4.80;99.90;;;;;;2586372;54;20031;31
2022/02/11 07:20:22;;;;;;;6.22;2.95;;;4.70;99.90;;;;;;2586616;54;21204;31
2022/02/11 07:22:55;;;;;;;4.47;2.70;;;4.70;99.90;;;;;;2587171;46;20097;31
2022/02/11 07:25:32;;;;;;;5.15;3.30;;;4.60;99.90;;;;;;2586721;54;20026;31
2022/02/11 07:28:05;;;;;;;5.13;3.07;;;4.60;99.90;;;;;;2586784;54;20049;31
2022/02/11 07:30:42;;;;;;;3.20;2.10;;;4.50;99.90;;;;;;2586457;54;21042;31
2022/02/11 07:33:17;;;;;;;3.75;1.70;;;4.50;99.90;;;;;;2586404;54;20085;31
2022/02/11 07:35:52;;;;;;;2.70;1.27;;;4.50;99.90;;;;;;2595375;46;21015;31
2022/02/11 07:38:27;;;;;;;2.35;1.63;;;4.40;99.90;;;;;;2604838;46;20030;31
2022/02/11 07:41:04;;;;;;;2.85;1.80;;;4.40;99.90;;;;;;2586110;54;20888;31
2022/02/11 07:43:38;;;;;;;5.00;2.20;;;4.30;99.90;;;;;;2586297;54;20030;31
2022/02/11 07:46:15;;;;;;;4.70;1.75;;;4.20;99.90;;;;;;2586458;54;20099;31
2022/02/11 07:48:48;;;;;;;5.60;2.75;;;4.10;99.90;;;;;;2586914;54;21555;31
2022/02/11 07:51:22;;;;;;;4.85;2.58;;;4.00;99.90;;;;;;2586268;54;20037;31
2022/02/11 07:53:58;;;;;;;5.57;2.65;;;4.00;99.90;;;;;;2586770;54;20845;31
2022/02/11 07:56:31;;;;;;;6.07;4.10;;;3.90;99.90;;;;;;2586573;54;20937;31
2022/02/11 07:59:05;;;;;;;7.18;4.20;;;3.80;99.90;;;;;;2586037;54;20022;31
2022/02/11 08:01:42;;;;;;;5.23;3.40;;;3.70;99.90;;;;;;2586551;54;20090;31
2022/02/11 08:04:17;;;;;;;5.47;3.40;;;3.70;99.90;;;;;;2586187;54;20786;31
2022/02/11 08:06:53;;;;;;;5.28;3.25;;;3.50;99.90;;;;;;2586384;54;20726;31
2022/02/11 08:09:26;;;;;;;5.33;2.80;;;3.40;99.90;;;;;;2585407;54;20034;31
2022/02/11 08:12:02;;;;;;;4.47;3.27;;;3.40;99.90;;;;;;2586122;54;20089;31
2022/02/11 08:14:35;;;;;;;3.00;1.85;;;3.30;99.90;;;;;;2589473;46;20050;31
2022/02/11 08:17:10;;;;;;;3.40;1.80;;;3.20;99.90;;;;;;2586260;54;20030;31
2022/02/11 08:19:45;;;;;;;1.90;1.52;;;3.20;99.90;;;;;;2586092;54;20849;31
2022/02/11 08:22:17;;;;;;;3.40;2.03;;;3.10;99.90;;;;;;2586292;54;20029;31
2022/02/11 08:25:01;;;;;;;4.10;2.05;;;3.10;99.90;;;;;;2586343;54;20903;31
2022/02/11 08:27:36;;;;;;;5.00;2.13;;;3.00;99.90;;;;;;2586264;54;20168;31
2022/02/11 08:30:26;;;;;;;6.47;3.08;;;3.00;99.90;;;;;;2586137;54;20116;31
2022/02/11 08:33:01;;;;;;;5.68;3.20;;;3.00;99.90;;;;;;2586563;46;20890;31
2022/02/11 08:35:34;;;;;;;6.50;2.20;;;3.00;99.90;;;;;;2587020;46;20445;31
2022/02/11 08:38:17;;;;;;;4.60;2.38;;;3.00;99.90;;;;;;2586075;54;20026;31
2022/02/11 08:40:50;;;;;;;4.38;2.58;;;3.00;99.90;;;;;;2586319;54;20078;31
2022/02/11 08:43:26;;;;;;;4.25;2.30;;;3.00;99.90;;;;;;2589114;46;19941;31
2022/02/11 08:45:59;;;;;;;3.67;2.03;;;2.90;99.90;;;;;;2586169;54;20026;31
2022/02/11 08:48:44;;;;;;;3.33;2.10;;;3.00;99.90;;;;;;2593102;46;20107;31
2022/02/11 08:51:17;;;;;;;6.30;2.10;;;3.00;99.90;;;;;;2586574;46;20033;31
2022/02/11 08:53:51;;;;;;;3.92;2.28;;;3.00;99.90;;;;;;2585848;54;20038;31
2022/02/11 08:56:28;;;;;;;4.00;2.80;;;3.10;99.90;;;;;;2604854;46;20041;31
2022/02/11 08:59:03;;;;;;;3.50;1.70;;;3.00;99.90;;;;;;2586123;54;20848;31
2022/02/11 09:01:37;;;;;;;3.00;1.90;;;3.00;99.90;;;;;;2586196;54;20079;31
2022/02/11 09:04:15;;;;;;;3.65;2.00;;;3.00;99.90;;;;;;2586177;54;20863;31
2022/02/11 09:06:50;;;;;;;4.35;2.20;;;3.00;99.90;;;;;;2586103;54;20031;31
2022/02/11 09:09:25;;;;;;;3.05;1.73;;;3.00;99.90;;;;;;2585893;54;20881;31
2022/02/11 09:11:58;;;;;;;4.88;2.97;;;3.00;99.90;;;;;;2585995;54;20751;31
2022/02/11 09:14:32;;;;;;;2.90;2.00;;;3.00;99.90;;;;;;2604548;46;20030;31
2022/02/11 09:17:05;;;;;;;2.65;1.90;;;2.90;99.90;;;;;;2586102;54;20026;31
2022/02/11 09:19:42;;;;;;;2.92;1.73;;;2.90;99.90;;;;;;2586355;54;20783;31
2022/02/11 09:22:17;;;;;;;5.10;2.20;;;2.80;99.90;;;;;;2585024;54;20969;31
2022/02/11 09:24:51;;;;;;;7.70;4.20;;;2.80;99.90;;;;;;2604788;46;20876;31
2022/02/11 09:27:23;;;;;;;6.00;3.70;;;2.80;99.90;;;;;;2754771;31;20528;31
2022/02/11 09:29:58;;;;;;;10.47;5.50;;;2.80;99.90;;;;;;2684397;39;20360;31
2022/02/11 09:32:34;;;;;;;17.88;10.35;;;2.80;99.90;;;;;;2586045;54;21117;31
2022/02/11 09:35:09;;;;;;;22.40;13.50;;;2.80;99.90;;;;;;2604236;46;20109;31
2022/02/11 09:37:48;;;;;;;13.13;8.07;;;2.80;99.90;;;;;;2586199;54;21160;31
2022/02/11 09:40:24;;;;;;;8.63;5.07;;;2.80;99.90;;;;;;2585663;54;20049;31
2022/02/11 09:42:58;;;;;;;8.05;4.25;;;2.80;99.90;;;;;;2585988;54;20132;31
2022/02/11 09:45:33;;;;;;;9.70;5.27;;;2.80;99.90;;;;;;2585923;54;20890;31
2022/02/11 09:48:10;;;;;;;6.50;3.95;;;2.80;99.90;;;;;;2586247;54;20101;31
2022/02/11 09:50:49;;;;;;;6.75;4.03;;;2.80;99.90;;;;;;2586316;54;20064;31
2022/02/11 09:53:30;;;;;;;8.80;3.85;;;2.80;99.90;;;;;;2585462;54;20023;31
2022/02/11 09:56:04;;;;;;;6.70;3.97;;;2.90;99.90;;;;;;2585987;54;20745;31
2022/02/11 09:58:57;;;;;;;5.30;3.40;;;2.80;99.90;;;;;;2586007;54;20029;31
2022/02/11 10:01:32;;;;;;;6.63;3.55;;;2.80;99.90;;;;;;2586115;54;20780;31
2022/02/11 10:04:17;;;;;;;7.50;4.43;;;2.80;99.90;;;;;;2585997;54;20699;31
2022/02/11 10:06:51;;;;;;;5.40;3.70;;;2.80;99.90;;;;;;2585648;54;20489;31
2022/02/11 10:09:28;;;;;;;4.93;3.10;;;2.80;99.90;;;;;;2586007;54;20087;31
2022/02/11 10:12:04;;;;;;;5.10;3.42;;;2.70;99.90;;;;;;2585691;54;20076;31
2022/02/11 10:14:36;;;;;;;3.20;2.40;;;2.70;99.90;;;;;;2585846;54;20954;31
2022/02/11 10:17:10;;;;;;;7.57;2.50;;;2.80;99.90;;;;;;2586653;47;20453;31
2022/02/11 10:19:47;;;;;;;14.27;4.10;;;2.80;99.90;;;;;;2586046;54;20239;31
2022/02/11 10:22:28;;;;;;;9.67;2.60;;;2.80;99.90;;;;;;2586743;54;20018;31
2022/02/11 10:25:04;;;;;;;7.57;2.90;;;2.80;99.90;;;;;;2586642;54;21406;31
2022/02/11 10:27:39;;;;;;;10.30;3.40;;;2.80;99.90;;;;;;2603633;46;20807;31
2022/02/11 10:30:18;;;;;;;10.53;3.83;;;2.80;99.90;;;;;;2605260;46;20125;31
2022/02/11 10:32:54;;;;;;;20.90;5.40;;;2.80;99.90;;;;;;2586669;54;20886;31
2022/02/11 10:35:29;;;;;;;6.78;2.35;;;2.80;99.90;;;;;;2589989;54;20054;31
2022/02/11 10:38:10;;;;;;;7.20;2.20;;;2.80;99.90;;;;;;2586763;54;20030;31
2022/02/11 10:40:48;;;;;;;23.23;6.23;;;2.80;99.90;;;;;;2585831;54;20853;31
2022/02/11 10:43:26;;;;;;;15.70;4.57;;;2.80;99.90;;;;;;2586958;54;21486;31
2022/02/11 10:46:01;;;;;;;10.35;2.70;;;2.80;99.90;;;;;;2586939;54;20957;31
2022/02/11 10:48:40;;;;;;;16.55;4.47;;;2.90;99.90;;;;;;2586269;54;20833;31
2022/02/11 10:51:22;;;;;;;13.95;3.90;;;2.80;99.90;;;;;;2589750;46;20030;31
2022/02/11 10:53:58;;;;;;;15.18;6.13;;;2.80;99.90;;;;;;2586653;54;20019;31
2022/02/11 10:56:37;;;;;;;13.80;5.75;;;2.80;99.90;;;;;;2586844;54;20034;31
2022/02/11 10:59:15;;;;;;;14.85;6.28;;;2.80;99.90;;;;;;2586645;54;20057;31
2022/02/11 11:01:55;;;;;;;13.38;6.05;;;2.80;99.90;;;;;;2586607;54;20022;31
2022/02/11 11:04:26;;;;;;;16.35;5.95;;;2.70;99.90;;;;;;2586716;54;20045;31
2022/02/11 11:06:59;;;;;;;17.10;7.20;;;2.70;99.90;;;;;;2605193;46;20859;31
2022/02/11 11:09:35;;;;;;;11.47;5.00;;;2.60;99.90;;;;;;2586163;54;21130;31
2022/02/11 11:12:19;;;;;;;10.53;5.37;;;2.50;99.90;;;;;;2586424;54;20286;31
2022/02/11 11:14:54;;;;;;;11.05;4.63;;;2.60;99.90;;;;;;2586607;54;20030;31
2022/02/11 11:17:26;;;;;;;7.70;4.00;;;2.50;99.90;;;;;;2586510;54;20767;31
2022/02/11 11:19:58;;;;;;;8.60;4.32;;;2.50;99.90;;;;;;2586413;54;20109;31
2022/02/11 11:22:31;;;;;;;13.15;5.50;;;2.50;99.90;;;;;;2586368;54;20850;31
2022/02/11 11:25:08;;;;;;;15.98;6.40;;;2.50;99.90;;;;;;2586273;54;20081;31
2022/02/11 11:27:48;;;;;;;18.63;6.47;;;2.50;99.90;;;;;;2586471;54;20030;31
2022/02/11 11:30:49;;;;;;;13.93;5.97;;;2.50;99.90;;;;;;2586301;54;20030;31
2022/02/11 11:36:16;;;;;;;13.10;6.07;;;2.50;99.90;;;;;;2604344;46;20636;31
2022/02/11 11:39:03;;;;;;;15.65;6.20;;;2.60;99.90;;;;;;2585484;54;20073;31
2022/02/11 11:41:38;;;;;;;13.10;6.07;;;2.60;99.90;;;;;;2590647;46;21452;31
2022/02/11 11:44:22;;;;;;;12.20;6.15;;;2.60;99.90;;;;;;2586687;54;20029;31
2022/02/11 11:46:59;;;;;;;11.40;5.65;;;2.70;99.90;;;;;;2604944;46;20085;31
2022/02/11 11:49:41;;;;;;;9.48;5.32;;;2.70;99.90;;;;;;2586540;54;20125;31
2022/02/11 11:52:20;;;;;;;17.30;6.40;;;2.70;99.90;;;;;;2586480;54;20949;31
2022/02/11 11:54:53;;;;;;;11.68;6.47;;;2.70;99.90;;;;;;2585959;54;20026;31
2022/02/11 11:57:25;;;;;;;12.60;6.80;;;2.80;99.90;;;;;;2586611;54;20038;31
2022/02/11 12:00:02;;;;;;;14.05;6.85;;;2.80;99.90;;;;;;2604947;46;20899;31
2022/02/11 12:02:42;;;;;;;13.70;5.90;;;2.90;99.90;;;;;;2586749;54;20847;31
2022/02/11 12:05:14;;;;;;;12.30;6.70;;;2.80;99.90;;;;;;2588910;46;20037;31
2022/02/11 12:07:46;;;;;;;12.13;7.13;;;2.90;99.90;;;;;;2586310;54;20887;31
2022/02/11 12:10:18;;;;;;;7.45;5.55;;;2.90;99.90;;;;;;2586346;54;20105;31
2022/02/11 12:12:55;;;;;;;11.40;6.05;;;2.90;99.90;;;;;;2586437;54;20042;31
2022/02/11 12:15:46;;;;;;;10.55;5.50;;;3.00;99.90;;;;;;2586478;54;20893;31
2022/02/11 12:18:24;;;;;;;11.90;5.30;;;3.00;99.90;;;;;;2586436;54;20768;31
2022/02/11 12:21:04;;;;;;;5.90;4.00;;;3.10;99.90;;;;;;2586593;54;20030;31
2022/02/11 12:29:08;;;;;;;8.23;4.10;;;3.10;99.90;;;;;;2605160;46;20036;31
2022/02/11 12:31:52;;;;;;;7.50;4.00;;;3.20;99.90;;;;;;2586054;54;20820;31
2022/02/11 12:34:33;;;;;;;5.65;3.50;;;3.20;99.90;;;;;;2586137;54;20297;31
2022/02/11 12:37:16;;;;;;;8.40;4.40;;;3.20;99.90;;;;;;2586208;54;20136;31
2022/02/11 12:40:03;;;;;;;5.53;3.35;;;3.20;99.90;;;;;;2586200;54;20030;31
2022/02/11 12:42:40;;;;;;;7.33;3.53;;;3.30;99.90;;;;;;2586311;54;20969;31
2022/02/11 12:45:19;;;;;;;8.30;3.60;;;3.30;99.90;;;;;;2586078;54;20027;31
2022/02/11 12:47:57;;;;;;;5.88;3.47;;;3.30;99.90;;;;;;2585415;54;20947;31
2022/02/11 12:50:34;;;;;;;7.05;3.30;;;3.30;99.90;;;;;;2586305;54;20848;31
2022/02/11 12:53:10;;;;;;;8.30;4.27;;;3.40;99.90;;;;;;2586146;54;20117;31
2022/02/11 12:55:50;;;;;;;6.68;3.20;;;3.40;99.90;;;;;;2586314;54;20826;31
2022/02/11 12:58:22;;;;;;;6.13;3.05;;;3.40;99.90;;;;;;2586539;54;20057;31
2022/02/11 13:00:55;;;;;;;5.65;2.90;;;3.40;99.90;;;;;;2586115;54;20818;31
2022/02/11 13:03:37;;;;;;;4.85;2.75;;;3.40;99.90;;;;;;2585985;54;20934;31
2022/02/11 13:06:10;;;;;;;5.72;2.65;;;3.40;99.90;;;;;;2586105;54;20894;31
2022/02/11 13:08:45;;;;;;;6.57;3.05;;;3.40;99.90;;;;;;2585881;54;20038;31
2022/02/11 13:11:27;;;;;;;4.50;2.30;;;3.40;99.90;;;;;;2587319;46;20023;31
2022/02/11 13:14:04;;;;;;;5.50;2.30;;;3.40;99.90;;;;;;2604868;46;20908;31
2022/02/11 13:16:42;;;;;;;5.72;2.38;;;3.50;99.90;;;;;;2586126;54;20426;31
2022/02/11 13:19:20;;;;;;;5.27;2.80;;;3.50;99.90;;;;;;2586208;54;20041;31
2022/02/11 13:21:55;;;;;;;5.60;2.45;;;3.40;99.90;;;;;;2604813;46;20038;31
2022/02/11 13:24:26;;;;;;;3.50;2.22;;;3.40;99.90;;;;;;2586139;54;20891;31
2022/02/11 13:26:58;;;;;;;4.10;2.00;;;3.50;99.90;;;;;;2586091;54;20042;31
2022/02/11 13:29:32;;;;;;;4.03;2.20;;;3.40;99.90;;;;;;2586487;46;20030;31
2022/02/11 13:32:04;;;;;;;2.30;1.30;;;3.50;99.90;;;;;;2585973;54;20546;31
2022/02/11 13:34:55;;;;;;;5.80;1.85;;;3.40;99.90;;;;;;2585659;54;21414;31
2022/02/11 13:37:43;;;;;;;;;;;3.40;99.90;;;;;;2605188;46;20793;31
2022/02/11 13:40:17;;;;;;;4.13;2.00;;;3.40;99.90;;;;;;2585915;54;19950;31
2022/02/11 13:42:57;;;;;;;5.93;1.83;;;3.40;99.90;;;;;;2589865;54;20030;31
2022/02/11 13:45:33;;;;;;;5.20;2.30;;;3.40;99.90;;;;;;2604567;46;20030;31
2022/02/11 13:48:13;;;;;;;2.88;1.10;;;3.40;99.90;;;;;;2586577;47;20081;31
2022/02/11 13:51:02;;;;;;;5.83;1.73;;;3.40;99.90;;;;;;2585833;54;20868;31
2022/02/11 13:53:39;;;;;;;5.25;1.52;;;3.30;99.90;;;;;;2586110;54;20023;31
2022/02/11 13:56:15;;;;;;;2.15;0.95;;;3.30;99.90;;;;;;2587171;54;20038;31
2022/02/11 13:59:15;;;;;;;3.45;1.20;;;3.20;99.90;;;;;;2586590;54;20047;31
2022/02/11 14:01:48;;;;;;;5.45;1.45;;;3.20;99.90;;;;;;2586659;54;20776;31
2022/02/11 14:04:35;;;;;;;7.97;2.20;;;3.20;99.90;;;;;;2587316;54;21144;31
2022/02/11 14:07:15;;;;;;;4.05;1.80;;;3.20;99.90;;;;;;2586977;54;20024;31
2022/02/11 14:09:48;;;;;;;5.28;1.70;;;3.20;99.90;;;;;;2605376;46;20876;31
2022/02/11 14:12:33;;;;;;;4.45;1.90;;;3.30;99.90;;;;;;2586857;54;20037;31
2022/02/11 14:15:12;;;;;;;4.15;2.03;;;3.30;99.90;;;;;;2587228;54;20278;31
2022/02/11 14:17:46;;;;;;;4.10;2.10;;;3.30;99.90;;;;;;2586600;54;20064;31
2022/02/11 14:20:20;;;;;;;;;;;3.30;99.90;;;;;;2685071;39;20409;31
2022/02/11 14:23:13;;;;;;;6.80;2.50;;;3.30;99.90;;;;;;2588019;46;19931;31
2022/02/11 14:25:47;;;;;;;4.30;2.80;;;3.30;99.90;;;;;;2586894;54;20056;31
2022/02/11 14:28:26;;;;;;;4.25;2.70;;;3.40;99.90;;;;;;2587850;54;21563;31
2022/02/11 14:31:00;;;;;;;3.78;3.00;;;3.30;99.90;;;;;;2586729;54;20145;31
2022/02/11 14:33:36;;;;;;;3.10;2.65;;;3.30;99.90;;;;;;2586830;54;20059;31
2022/02/11 14:36:11;;;;;;;5.07;3.00;;;3.30;99.90;;;;;;2586614;54;20843;31
2022/02/11 14:38:48;;;;;;;5.15;2.83;;;3.40;99.90;;;;;;2586700;54;20841;31
2022/02/11 14:44:08;;;;;;;3.20;2.00;;;3.30;99.90;;;;;;2587274;54;21495;31
2022/02/11 14:46:40;;;;;;;4.60;2.20;;;3.30;99.90;;;;;;2586466;54;21177;31
2022/02/11 14:49:13;;;;;;;4.87;2.70;;;3.30;99.90;;;;;;2586828;54;20944;31
2022/02/11 14:51:51;;;;;;;6.30;2.85;;;3.30;99.90;;;;;;2586524;54;20022;31
2022/02/11 14:54:25;;;;;;;4.50;3.13;;;3.40;99.90;;;;;;2605563;46;21813;31
2022/02/11 14:56:58;;;;;;;4.90;3.00;;;3.30;99.90;;;;;;2587459;46;20867;31
2022/02/11 14:59:32;;;;;;;4.70;2.78;;;3.40;99.90;;;;;;2605081;39;22149;31
2022/02/11 15:02:05;;;;;;;8.27;3.70;;;3.50;99.90;;;;;;2587071;54;20341;31
2022/02/11 15:04:37;;;;;;;7.25;3.65;;;3.40;99.90;;;;;;2605560;46;20037;31
2022/02/11 15:07:11;;;;;;;4.55;3.50;;;3.40;99.90;;;;;;2586802;54;20025;31
2022/02/11 15:09:46;;;;;;;6.93;3.85;;;3.40;99.90;;;;;;2587374;54;20050;31
2022/02/11 15:12:19;;;;;;;5.65;3.50;;;3.50;99.90;;;;;;2684608;39;20508;31
2022/02/11 15:14:55;;;;;;;9.00;5.28;;;3.50;99.90;;;;;;2586449;54;20198;31
2022/02/11 15:17:28;;;;;;;7.95;5.40;;;3.50;99.90;;;;;;2596882;54;20025;31
2022/02/11 15:20:01;;;;;;;10.60;6.47;;;3.50;99.90;;;;;;2587240;46;20141;31
2022/02/11 15:22:33;;;;;;;10.80;5.90;;;3.50;99.90;;;;;;2591798;46;21121;31
2022/02/11 15:25:11;;;;;;;11.07;6.60;;;3.50;99.90;;;;;;2755863;31;20463;31
2022/02/11 15:27:45;;;;;;;12.80;7.70;;;3.40;99.90;;;;;;2684721;39;20406;31
2022/02/11 15:30:22;;;;;;;14.02;8.55;;;3.50;99.90;;;;;;2587531;46;20895;31
2022/02/11 15:32:57;;;;;;;20.15;9.50;;;3.40;99.90;;;;;;2586978;54;20022;31
2022/02/11 15:35:32;;;;;;;19.77;10.10;;;3.40;99.90;;;;;;2586848;54;20879;31
2022/02/11 15:38:08;;;;;;;20.83;9.90;;;3.40;99.90;;;;;;2587346;54;20023;31
2022/02/11 15:40:46;;;;;;;18.00;10.75;;;3.40;99.90;;;;;;2586483;46;20467;31
2022/02/11 15:43:19;;;;;;;25.40;14.15;;;3.40;99.90;;;;;;2587061;46;20023;31
2022/02/11 15:45:55;;;;;;;19.43;11.10;;;3.40;99.90;;;;;;2605339;46;20045;31
2022/02/11 15:48:33;;;;;;;18.83;10.90;;;3.40;99.90;;;;;;2586522;54;21120;31
2022/02/11 15:51:05;;;;;;;15.55;10.02;;;3.30;99.90;;;;;;2589917;54;20917;31
2022/02/11 15:53:41;;;;;;;17.17;10.35;;;3.30;99.90;;;;;;2586627;54;20979;31
2022/02/11 15:56:17;;;;;;;18.13;10.25;;;3.20;99.90;;;;;;2586703;54;20030;31
2022/02/11 15:58:51;;;;;;;16.55;10.80;;;3.20;99.90;;;;;;2586730;54;20045;31
2022/02/11 16:01:24;;;;;;;18.70;11.57;;;3.20;99.90;;;;;;2586616;54;20823;31
2022/02/11 16:03:59;;;;;;;22.20;12.68;;;3.10;99.90;;;;;;2586503;54;20912;31
2022/02/11 16:06:31;;;;;;;21.35;13.50;;;3.10;99.90;;;;;;2586498;54;20032;31
2022/02/11 16:09:09;;;;;;;28.55;17.85;;;3.10;99.90;;;;;;2586498;54;20042;31
2022/02/11 16:11:46;;;;;;;31.63;21.50;;;3.10;99.90;;;;;;2586870;54;20790;31
2022/02/11 16:14:18;;;;;;;38.88;26.80;;;2.90;99.90;;;;;;2586039;54;20756;31
2022/02/11 16:16:52;;;;;;;38.25;27.85;;;3.00;99.90;;;;;;2586604;54;20862;31
2022/02/11 16:21:58;;;;;;;33.08;24.42;;;2.90;99.90;;;;;;2586994;54;20027;31
2022/02/11 16:24:37;;;;;;;27.52;17.00;;;2.90;99.90;;;;;;2586789;54;20882;31
2022/02/11 16:27:14;;;;;;;22.50;14.98;;;2.80;99.90;;;;;;2587041;54;20842;31
2022/02/11 16:29:48;;;;;;;27.00;16.58;;;2.70;99.90;;;;;;2684073;39;20365;31
2022/02/11 16:32:22;;;;;;;31.33;18.25;;;2.70;99.90;;;;;;2589845;54;20034;31
2022/02/11 16:34:54;;;;;;;33.80;20.13;;;2.70;99.90;;;;;;2605134;46;20036;31
2022/02/11 16:37:26;;;;;;;32.38;20.83;;;2.70;99.90;;;;;;2585726;54;21060;31
2022/02/11 16:39:58;;;;;;;33.85;21.65;;;2.60;99.90;;;;;;2586210;54;20049;31
2022/02/11 16:42:38;;;;;;;29.15;20.45;;;2.60;99.90;;;;;;2586299;54;20910;31
2022/02/11 16:45:12;;;;;;;32.20;19.40;;;2.60;99.90;;;;;;2604870;46;20773;31
2022/02/11 16:47:44;;;;;;;28.20;15.88;;;2.50;99.90;;;;;;2586547;54;21178;31
2022/02/11 16:50:18;;;;;;;21.47;14.00;;;2.50;99.90;;;;;;2586408;54;20033;31
2022/02/11 16:52:53;;;;;;;20.00;13.25;;;2.50;99.90;;;;;;2586543;54;20239;31
2022/02/11 16:55:24;;;;;;;26.35;14.38;;;2.50;99.90;;;;;;2586344;54;20985;31
2022/02/11 16:58:01;;;;;;;24.60;15.25;;;2.50;99.90;;;;;;2586382;54;20935;31
2022/02/11 17:00:32;;;;;;;25.42;15.07;;;2.40;99.90;;;;;;2586213;54;20893;31
2022/02/11 17:03:06;;;;;;;17.98;10.75;;;2.40;99.90;;;;;;2586670;54;21277;31
2022/02/11 17:05:37;;;;;;;17.83;10.70;;;2.40;99.90;;;;;;2586657;54;20982;31
2022/02/11 17:08:12;;;;;;;16.45;9.85;;;2.40;99.90;;;;;;2586533;54;20866;31
2022/02/11 17:10:44;;;;;;;16.35;9.13;;;2.30;99.90;;;;;;2586192;54;20018;31
2022/02/11 17:13:22;;;;;;;18.15;9.57;;;2.30;99.90;;;;;;2585519;54;20187;31
2022/02/11 17:15:54;;;;;;;14.95;9.60;;;2.40;99.90;;;;;;2586209;54;20894;31
2022/02/11 17:18:26;;;;;;;15.80;9.38;;;2.50;99.90;;;;;;2586917;54;20069;31
2022/02/11 17:20:58;;;;;;;15.30;9.20;;;2.40;99.90;;;;;;2586740;54;20817;31
2022/02/11 17:23:30;;;;;;;17.35;9.75;;;2.40;99.90;;;;;;2586634;54;20451;-77